createdAt,value
2023-05-13T00:04:13.348Z,101879.97
2023-05-13T00:10:55.702Z,101875.53
2023-05-13T00:17:38.040Z,101877.31
2023-05-13T00:24:20.627Z,101877.28
2023-05-13T00:31:03.505Z,101885.22
2023-05-13T00:37:45.692Z,101879.91
2023-05-13T00:44:28.546Z,101879.94
2023-05-13T00:51:11.014Z,101883.47
2023-05-13T00:57:53.280Z,101881.69
2023-05-13T01:05:05.535Z,101882.59
2023-05-13T01:11:53.424Z,101883.50
2023-05-13T01:18:47.812Z,101890.53
2023-05-13T01:25:30.926Z,101892.31
2023-05-13T01:32:14.127Z,101899.34
2023-05-13T01:38:57.408Z,101898.47
2023-05-13T01:45:42.639Z,101901.13
2023-05-13T01:52:26.608Z,101902.00
2023-05-13T01:59:11.035Z,101896.72
2023-05-13T02:05:53.339Z,101907.28
2023-05-13T02:12:35.809Z,101904.59
2023-05-13T02:19:19.925Z,101905.50
2023-05-13T02:26:04.291Z,101909.88
2023-05-13T02:32:47.090Z,101902.88
2023-05-13T02:39:29.389Z,101905.50
2023-05-13T02:46:13.503Z,101903.72
2023-05-13T02:52:55.874Z,101902.84
2023-05-13T02:59:39.460Z,101905.47
2023-05-13T03:06:21.872Z,101911.59
2023-05-13T03:13:04.576Z,101909.84
2023-05-13T03:19:46.814Z,101909.84
2023-05-13T03:26:30.132Z,101917.75
2023-05-13T03:33:12.615Z,101921.28
2023-05-13T03:39:55.332Z,101927.44
2023-05-13T03:46:37.841Z,101923.09
2023-05-13T03:53:21.042Z,101922.19
2023-05-13T04:00:04.873Z,101923.97
2023-05-13T04:06:56.881Z,101922.19
2023-05-13T04:13:40.848Z,101927.44
2023-05-13T04:20:23.453Z,101932.69
2023-05-13T04:27:06.539Z,101938.81
2023-05-13T04:33:49.157Z,101938.75
2023-05-13T04:40:31.610Z,101930.75
2023-05-13T04:47:19.289Z,101936.84
2023-05-13T04:54:01.636Z,101943.78
2023-05-13T05:00:44.241Z,101950.72
2023-05-13T05:07:26.556Z,101941.81
2023-05-13T05:14:08.944Z,101944.31
2023-05-13T05:20:51.250Z,101947.69
2023-05-13T05:27:35.904Z,101950.16
2023-05-13T05:34:18.769Z,101949.97
2023-05-13T05:41:01.297Z,101946.19
2023-05-13T05:47:44.452Z,101948.56
2023-05-13T05:54:28.517Z,101949.97
2023-05-13T06:01:11.069Z,101960.22
2023-05-13T06:07:53.644Z,101952.81
2023-05-13T06:14:35.952Z,101947.09
2023-05-13T06:21:18.197Z,101942.28
2023-05-13T06:28:06.251Z,101948.88
2023-05-13T06:34:48.622Z,101949.19
2023-05-13T06:41:31.239Z,101944.06
2023-05-13T06:48:24.203Z,101943.38
2023-05-13T06:55:07.112Z,101939.94
2023-05-13T07:01:49.344Z,101946.22
2023-05-13T07:08:31.518Z,101941.78
2023-05-13T07:15:13.660Z,101945.31
2023-05-13T07:21:55.984Z,101942.66
2023-05-13T07:28:38.695Z,101944.38
2023-05-13T07:35:21.251Z,101938.72
2023-05-13T07:42:04.036Z,101939.31
2023-05-13T07:48:46.249Z,101932.72
2023-05-13T07:55:28.476Z,101929.81
2023-05-13T08:02:11.390Z,101930.31
2023-05-13T08:08:53.677Z,101932.38
2023-05-13T08:15:37.132Z,101926.34
2023-05-13T08:22:19.835Z,101931.03
2023-05-13T08:29:02.294Z,101925.84
2023-05-13T08:35:44.937Z,101918.75
2023-05-13T08:42:32.456Z,101929.75
2023-05-13T08:49:14.859Z,101916.69
2023-05-13T08:55:57.709Z,101917.59
2023-05-13T09:02:41.929Z,101911.16
2023-05-13T09:09:24.802Z,101911.06
2023-05-13T09:16:07.342Z,101907.28
2023-05-13T09:22:52.457Z,101891.84
2023-05-13T09:29:34.874Z,101897.81
2023-05-13T09:36:17.241Z,101888.47
2023-05-13T09:42:59.480Z,101879.31
2023-05-13T09:49:43.516Z,101866.03
2023-05-13T09:56:30.975Z,101863.25
2023-05-13T10:03:15.197Z,101857.69
2023-05-13T10:10:04.405Z,101846.44
2023-05-13T10:16:48.031Z,101843.19
2023-05-13T10:23:32.581Z,101840.31
2023-05-13T10:30:17.497Z,101832.47
2023-05-13T10:37:15.700Z,101827.66
2023-05-13T10:43:59.462Z,101823.66
2023-05-13T10:51:01.563Z,101823.22
2023-05-13T10:58:12.084Z,101825.44
2023-05-13T11:05:01.225Z,101802.19
2023-05-13T11:11:48.865Z,101820.50
2023-05-13T11:18:31.606Z,101816.66
2023-05-13T11:25:14.048Z,101808.47
2023-05-13T11:32:00.484Z,101811.59
2023-05-13T11:38:43.243Z,101810.75
2023-05-13T11:45:27.744Z,101814.84
2023-05-13T11:52:15.257Z,101812.69
2023-05-13T11:59:14.802Z,101803.28
2023-05-13T12:06:05.483Z,101807.13
2023-05-13T12:12:47.982Z,101797.13
2023-05-13T12:19:30.324Z,101801.38
2023-05-13T12:26:12.568Z,101808.16
2023-05-13T12:32:59.215Z,101809.13
2023-05-13T12:39:43.214Z,101814.84
2023-05-13T12:46:25.771Z,101799.78
2023-05-13T12:53:08.077Z,101794.75
2023-05-13T12:59:50.368Z,101786.59
2023-05-13T13:06:32.718Z,101782.66
2023-05-13T13:13:14.903Z,101782.28
2023-05-13T13:19:57.468Z,101790.41
2023-05-13T13:26:39.680Z,101784.69
2023-05-13T13:33:22.436Z,101779.34
2023-05-13T13:40:05.505Z,101783.28
2023-05-13T13:46:47.747Z,101769.94
2023-05-13T13:53:29.989Z,101768.22
2023-05-13T14:00:14.451Z,101771.78
2023-05-13T14:06:57.875Z,101757.31
2023-05-13T14:13:40.606Z,101768.88
2023-05-13T14:20:24.923Z,101770.47
2023-05-13T14:27:07.383Z,101743.13
2023-05-13T14:33:50.353Z,101743.50
2023-05-13T14:40:34.437Z,101749.53
2023-05-13T14:47:16.727Z,101735.09
2023-05-13T14:53:58.916Z,101746.97
2023-05-13T15:00:41.693Z,101748.50
2023-05-13T15:07:24.014Z,101748.88
2023-05-13T15:14:06.257Z,101751.66
2023-05-13T15:20:48.412Z,101743.47
2023-05-13T15:27:30.576Z,101736.72
2023-05-13T15:34:12.902Z,101730.47
2023-05-13T15:40:55.138Z,101731.88
2023-05-13T15:47:37.748Z,101722.97
2023-05-13T15:54:20.094Z,101716.28
2023-05-13T16:01:02.333Z,101704.81
2023-05-13T16:07:44.723Z,101699.81
2023-05-13T16:14:27.431Z,101697.75
2023-05-13T16:21:09.627Z,101725.25
2023-05-13T16:27:51.897Z,101728.56
2023-05-13T16:34:34.263Z,101727.75
2023-05-13T16:41:16.422Z,101719.81
2023-05-13T16:47:58.665Z,101709.53
2023-05-13T16:54:41.014Z,101709.56
2023-05-13T17:01:23.471Z,101705.41
2023-05-13T17:08:05.932Z,101706.03
2023-05-13T17:14:48.162Z,101717.47
2023-05-13T17:21:30.335Z,101733.06
2023-05-13T17:28:12.593Z,101756.53
2023-05-13T17:34:54.932Z,101754.53
2023-05-13T17:41:37.110Z,101761.75
2023-05-13T17:48:19.416Z,101753.19
2023-05-13T17:55:01.759Z,101737.41
2023-05-13T18:01:43.977Z,101740.41
2023-05-13T18:08:26.357Z,101752.03
2023-05-13T18:15:08.845Z,101751.75
2023-05-13T18:21:51.036Z,101725.78
2023-05-13T18:28:33.201Z,101732.81
2023-05-13T18:35:16.121Z,101736.03
2023-05-13T18:41:58.276Z,101727.56
2023-05-13T18:48:40.611Z,101744.03
2023-05-13T18:55:22.813Z,101743.63
2023-05-13T19:02:05.531Z,101763.84
2023-05-13T19:08:47.843Z,101754.56
2023-05-13T19:15:30.013Z,101762.03
2023-05-13T19:22:12.816Z,101750.84
2023-05-13T19:28:55.018Z,101744.50
2023-05-13T19:35:37.618Z,101731.88
2023-05-13T19:42:20.412Z,101742.06
2023-05-13T19:49:02.613Z,101751.03
2023-05-13T19:55:45.368Z,101753.97
2023-05-13T20:02:27.936Z,101750.88
2023-05-13T20:09:12.015Z,101751.28
2023-05-13T20:15:54.249Z,101749.09
2023-05-13T20:22:36.525Z,101749.72
2023-05-13T20:29:18.722Z,101743.13
2023-05-13T20:36:01.957Z,101734.06
2023-05-13T20:42:44.244Z,101740.16
2023-05-13T20:49:26.900Z,101747.00
2023-05-13T20:56:10.146Z,101743.22
2023-05-13T21:02:53.266Z,101740.22
2023-05-13T21:09:35.409Z,101732.72
2023-05-13T21:16:17.646Z,101742.91
2023-05-13T21:23:01.347Z,101738.75
2023-05-13T21:29:43.574Z,101741.72
2023-05-13T21:36:25.978Z,101752.75
2023-05-13T21:43:08.067Z,101737.16
2023-05-13T21:49:50.276Z,101737.66
2023-05-13T21:56:32.891Z,101736.31
2023-05-13T22:03:15.054Z,101735.66
2023-05-13T22:09:57.709Z,101738.38
2023-05-13T22:16:40.075Z,101731.38
2023-05-13T22:23:22.248Z,101736.72
2023-05-13T22:30:05.154Z,101727.06
2023-05-13T22:36:47.599Z,101727.34
2023-05-13T22:43:29.754Z,101732.84
2023-05-13T22:50:12.888Z,101726.88
2023-05-13T22:56:55.060Z,101716.59
2023-05-13T23:03:37.298Z,101710.69
2023-05-13T23:10:19.553Z,101711.81
2023-05-13T23:17:01.806Z,101720.84
2023-05-13T23:23:43.996Z,101722.81
2023-05-13T23:30:26.185Z,101716.72
2023-05-13T23:37:08.551Z,101716.91
2023-05-13T23:43:50.714Z,101715.34
2023-05-13T23:50:33.065Z,101720.91
2023-05-13T23:57:15.227Z,101721.13
